Seatonville, Illinois
Current Conditions -  °F | °C
As of 12:55 PM on Tuesday 27 Jan 2015 (Local Time) from KVYS Reporting Station
Overcast Overcast  
Wind Chill: 31°   Ceiling: 1400
Heat Index: 31°   Visibility: 7mi
Dew Point: 27°   Wind: 3mph
Humidity: 83%   Direction: 20°NNE
Pressure: 30.19"   Gusts: NA
Location:  41.36°N, 89.28°W
Report Text: KVYS 271855Z AUTO 02003KT 7SM OVC014 00/M03 A3019 RMK AO2 T10051030
Loading
Personal Weather Stations






























Interactive Weather Map New forecast layout! Learn more

10-Day Weather Forecast

Advertisements
Track Severe Weather on mobile